Time;durP1;ratioP1;P1;durP2;ratioP2;P2;SDS_P1;SDS_P2;PMS_P1;PMS_P2;Temp;Humidity;BMP_temperature;BMP_pressure;BME280_temperature;BME280_humidity;BME280_pressure;Samples;Min_cycle;Max_cycle;Signal;HPM_P1;HPM_P2
2021/09/03 00:00:23;;;;;;;6.03;4.70;;;18.80;99.90;;;;;;5056009;28;20207;-75
2021/09/03 00:02:50;;;;;;;7.30;5.60;;;18.80;99.90;;;;;;5045512;28;20253;-75
2021/09/03 00:05:19;;;;;;;5.72;5.22;;;18.80;99.90;;;;;;5046617;28;20195;-75
2021/09/03 00:07:48;;;;;;;6.93;6.22;;;18.80;99.90;;;;;;5048604;28;20245;-75
2021/09/03 00:10:18;;;;;;;5.45;4.95;;;18.80;99.90;;;;;;5050557;28;20195;-75
2021/09/03 00:12:45;;;;;;;6.43;5.93;;;18.70;99.90;;;;;;5040638;28;20200;-75
2021/09/03 00:15:15;;;;;;;5.63;5.13;;;18.70;99.90;;;;;;5034375;28;20218;-75
2021/09/03 00:17:42;;;;;;;5.55;4.97;;;18.70;99.90;;;;;;5039342;28;20195;-75
2021/09/03 00:20:11;;;;;;;5.60;4.72;;;18.70;99.90;;;;;;5039645;28;20277;-77
2021/09/03 00:22:38;;;;;;;5.18;4.68;;;18.70;99.90;;;;;;5031584;28;20192;-76
2021/09/03 00:25:07;;;;;;;4.78;4.38;;;18.60;99.90;;;;;;5031852;28;20234;-76
2021/09/03 00:27:34;;;;;;;6.43;5.07;;;18.60;99.90;;;;;;5055018;28;20198;-76
2021/09/03 00:30:01;;;;;;;5.15;4.65;;;18.60;99.90;;;;;;5054775;28;20194;-76
2021/09/03 00:32:27;;;;;;;6.03;4.80;;;18.60;99.90;;;;;;5049005;28;20199;-76
2021/09/03 00:34:54;;;;;;;7.53;5.97;;;18.50;99.90;;;;;;5058077;28;20582;-77
2021/09/03 00:37:21;;;;;;;4.68;4.25;;;18.50;99.90;;;;;;5050541;28;20253;-76
2021/09/03 00:39:47;;;;;;;6.10;5.38;;;18.50;99.90;;;;;;5041921;28;20250;-76
2021/09/03 00:42:16;;;;;;;6.78;5.47;;;18.50;99.90;;;;;;5048365;28;20196;-76
2021/09/03 00:44:43;;;;;;;6.05;5.05;;;18.40;99.90;;;;;;5050136;28;20199;-77
2021/09/03 00:47:09;;;;;;;5.40;4.82;;;18.50;99.90;;;;;;5051244;28;20199;-76
2021/09/03 00:49:36;;;;;;;7.40;5.70;;;18.50;99.90;;;;;;5050199;28;20192;-76
2021/09/03 00:52:06;;;;;;;5.72;4.78;;;18.40;99.90;;;;;;5051933;28;20196;-76
2021/09/03 00:54:33;;;;;;;6.07;5.53;;;18.40;99.90;;;;;;5048686;28;20192;-76
2021/09/03 00:57:00;;;;;;;5.82;4.82;;;18.40;99.90;;;;;;5050218;28;20223;-76
2021/09/03 00:59:28;;;;;;;6.95;5.90;;;18.40;99.90;;;;;;5048944;28;20195;-76
2021/09/03 01:01:55;;;;;;;6.50;5.57;;;18.40;99.90;;;;;;5049042;28;20238;-76
2021/09/03 01:04:22;;;;;;;6.18;5.60;;;18.40;99.90;;;;;;5048897;28;20195;-75
2021/09/03 01:06:49;;;;;;;5.20;4.70;;;18.30;99.90;;;;;;5053033;28;20199;-75
2021/09/03 01:09:16;;;;;;;6.28;5.03;;;18.30;99.90;;;;;;5045564;28;20199;-75
2021/09/03 01:11:43;;;;;;;6.82;5.20;;;18.30;99.90;;;;;;5048367;28;20188;-75
2021/09/03 01:14:09;;;;;;;5.88;5.28;;;18.40;99.90;;;;;;5045734;28;20231;-75
2021/09/03 01:16:37;;;;;;;5.93;4.68;;;18.30;99.90;;;;;;5047369;28;20671;-76
2021/09/03 01:19:04;;;;;;;5.70;5.20;;;18.30;99.90;;;;;;5049072;28;20195;-75
2021/09/03 01:21:31;;;;;;;7.03;6.32;;;18.40;99.90;;;;;;5048056;28;20242;-75
2021/09/03 01:23:59;;;;;;;5.55;5.05;;;18.30;99.90;;;;;;5046233;28;20207;-75
2021/09/03 01:26:26;;;;;;;5.57;5.03;;;18.30;99.90;;;;;;5050679;28;20191;-75
2021/09/03 01:28:53;;;;;;;7.10;6.43;;;18.30;99.90;;;;;;5054984;28;20195;-76
2021/09/03 01:31:20;;;;;;;5.55;5.05;;;18.20;99.90;;;;;;5054599;28;20607;-75
2021/09/03 01:33:47;;;;;;;5.65;5.10;;;18.20;99.90;;;;;;5039266;28;20192;-75
2021/09/03 01:36:14;;;;;;;6.70;6.03;;;18.20;99.90;;;;;;5050169;28;20706;-75
2021/09/03 01:38:42;;;;;;;5.57;5.07;;;18.20;99.90;;;;;;5043705;28;20693;-76
2021/09/03 01:41:10;;;;;;;6.05;4.60;;;18.20;99.90;;;;;;5040558;28;20206;-75
2021/09/03 01:43:37;;;;;;;6.13;4.93;;;18.20;99.90;;;;;;5049111;28;20253;-75
2021/09/03 01:46:07;;;;;;;6.60;5.95;;;18.10;99.90;;;;;;5036971;28;20204;-76
2021/09/03 01:48:34;;;;;;;8.10;6.00;;;18.10;99.90;;;;;;5039545;28;20290;-76
2021/09/03 01:51:01;;;;;;;7.55;5.47;;;18.10;99.90;;;;;;5037914;28;20204;-75
2021/09/03 01:53:28;;;;;;;5.28;4.72;;;18.10;99.90;;;;;;5056351;28;20191;-75
2021/09/03 01:55:54;;;;;;;6.53;5.88;;;18.00;99.90;;;;;;5050921;28;20212;-75
2021/09/03 01:58:23;;;;;;;6.07;5.43;;;18.00;99.90;;;;;;5055779;28;20266;-75
2021/09/03 02:00:49;;;;;;;7.25;5.50;;;18.00;99.90;;;;;;5054443;28;20216;-75
2021/09/03 02:03:16;;;;;;;5.90;5.30;;;18.00;99.90;;;;;;5046835;28;20191;-75
2021/09/03 02:05:43;;;;;;;6.70;5.63;;;18.00;99.90;;;;;;5052917;28;20203;-74
2021/09/03 02:08:10;;;;;;;5.65;5.00;;;18.00;99.90;;;;;;5042792;28;20200;-74
2021/09/03 02:10:37;;;;;;;6.72;5.95;;;18.00;99.90;;;;;;5044838;28;20192;-74
2021/09/03 02:13:04;;;;;;;6.68;6.03;;;17.90;99.90;;;;;;5035955;28;20258;-74
2021/09/03 02:15:32;;;;;;;6.30;5.75;;;17.90;99.90;;;;;;5051236;28;20192;-74
2021/09/03 02:17:58;;;;;;;6.78;5.30;;;17.90;99.90;;;;;;5048050;28;20409;-74
2021/09/03 02:20:25;;;;;;;6.22;5.38;;;17.90;99.90;;;;;;5049463;28;20261;-74
2021/09/03 02:22:52;;;;;;;6.18;5.57;;;17.90;99.90;;;;;;5051941;28;20194;-74
2021/09/03 02:25:18;;;;;;;6.25;5.07;;;17.80;99.90;;;;;;5055281;28;20253;-74
2021/09/03 02:27:45;;;;;;;5.80;5.30;;;17.90;99.90;;;;;;5054864;28;20195;-73
2021/09/03 02:30:13;;;;;;;6.13;5.50;;;17.90;99.90;;;;;;5047998;28;20245;-74
2021/09/03 02:32:41;;;;;;;6.70;5.03;;;17.90;99.90;;;;;;5048305;28;20262;-74
2021/09/03 02:35:08;;;;;;;5.82;5.30;;;17.80;99.90;;;;;;5049700;28;20244;-75
2021/09/03 02:37:35;;;;;;;6.20;5.60;;;17.80;99.90;;;;;;5050569;28;20211;-75
2021/09/03 02:40:01;;;;;;;6.45;5.93;;;17.80;99.90;;;;;;5042241;28;20195;-75
2021/09/03 02:42:28;;;;;;;7.53;5.90;;;17.80;99.90;;;;;;5044989;28;20202;-76
2021/09/03 02:44:55;;;;;;;7.45;5.78;;;17.80;99.90;;;;;;5053250;28;20643;-76
2021/09/03 02:47:21;;;;;;;5.93;5.32;;;17.80;99.90;;;;;;5044830;28;20206;-76
2021/09/03 02:49:49;;;;;;;6.13;5.53;;;17.80;99.90;;;;;;5055001;28;20195;-76
2021/09/03 02:52:16;;;;;;;6.95;5.78;;;17.70;99.90;;;;;;5043647;28;20612;-76
2021/09/03 02:54:43;;;;;;;6.07;5.47;;;17.70;99.90;;;;;;5046206;28;20241;-76
2021/09/03 02:57:09;;;;;;;6.75;6.10;;;17.70;99.90;;;;;;5048947;28;20234;-76
2021/09/03 02:59:36;;;;;;;6.10;4.90;;;17.70;99.90;;;;;;5056455;28;21604;-76
2021/09/03 03:02:03;;;;;;;6.63;5.55;;;17.70;99.90;;;;;;5052364;28;20258;-76
2021/09/03 03:04:30;;;;;;;5.43;4.93;;;17.70;99.90;;;;;;5053875;28;20207;-76
2021/09/03 03:06:58;;;;;;;7.00;5.55;;;17.60;99.90;;;;;;5051454;28;20200;-76
2021/09/03 03:09:24;;;;;;;5.72;4.70;;;17.70;99.90;;;;;;5044936;28;20250;-76
2021/09/03 03:11:51;;;;;;;7.00;5.47;;;17.60;99.90;;;;;;5043210;28;20584;-76
2021/09/03 03:14:26;;;;;;;5.40;4.90;;;17.60;99.90;;;;;;5041863;28;20191;-75
2021/09/03 03:16:54;;;;;;;7.20;5.28;;;17.60;99.90;;;;;;5055462;28;20213;-75
2021/09/03 03:19:21;;;;;;;6.47;5.80;;;17.70;99.90;;;;;;5056421;28;20211;-76
2021/09/03 03:21:47;;;;;;;5.80;5.30;;;17.60;99.90;;;;;;5058761;28;20576;-75
2021/09/03 03:24:15;;;;;;;5.78;5.25;;;17.60;99.90;;;;;;5045539;28;20262;-75
2021/09/03 03:26:42;;;;;;;5.93;5.22;;;17.40;99.90;;;;;;5053298;28;20618;-76
2021/09/03 03:29:09;;;;;;;5.88;5.32;;;17.50;99.90;;;;;;5054548;28;20191;-76
2021/09/03 03:31:36;;;;;;;7.10;6.18;;;17.50;99.90;;;;;;5048666;28;20194;-75
2021/09/03 03:34:03;;;;;;;6.18;5.60;;;17.50;99.90;;;;;;5056830;28;20202;-76
2021/09/03 03:36:30;;;;;;;6.43;5.93;;;17.50;99.90;;;;;;5055060;28;20222;-76
2021/09/03 03:38:57;;;;;;;8.98;5.75;;;17.50;99.90;;;;;;5053588;28;20203;-76
2021/09/03 03:41:25;;;;;;;5.95;5.45;;;17.40;99.90;;;;;;5053487;28;20217;-76
2021/09/03 03:43:52;;;;;;;6.60;5.00;;;17.40;99.90;;;;;;5050001;28;20199;-76
2021/09/03 03:46:18;;;;;;;5.57;5.07;;;17.40;99.90;;;;;;5049504;28;20191;-76
2021/09/03 03:48:45;;;;;;;6.07;5.53;;;17.40;99.90;;;;;;5043023;28;20431;-76
2021/09/03 03:51:12;;;;;;;7.70;6.15;;;17.30;99.90;;;;;;5048301;28;20200;-76
2021/09/03 03:53:38;;;;;;;5.85;5.35;;;17.40;99.90;;;;;;5048926;28;20199;-75
2021/09/03 03:56:05;;;;;;;5.22;4.80;;;17.40;99.90;;;;;;5050677;28;20466;-76
2021/09/03 03:58:33;;;;;;;5.60;5.10;;;17.40;99.90;;;;;;5054899;28;20671;-76
2021/09/03 04:01:00;;;;;;;6.88;4.60;;;17.40;99.90;;;;;;5052896;28;20203;-76
2021/09/03 04:03:27;;;;;;;5.18;4.68;;;17.40;99.90;;;;;;5047129;28;20215;-75
2021/09/03 04:05:53;;;;;;;6.18;5.55;;;17.30;99.90;;;;;;5053591;28;20392;-76
2021/09/03 04:08:20;;;;;;;6.25;5.05;;;17.30;99.90;;;;;;5045415;28;20294;-75
2021/09/03 04:10:47;;;;;;;6.13;5.53;;;17.30;99.90;;;;;;5044573;28;20199;-76
2021/09/03 04:13:14;;;;;;;7.72;5.65;;;17.30;99.90;;;;;;5052484;28;20191;-75
2021/09/03 04:15:42;;;;;;;6.95;5.85;;;17.20;99.90;;;;;;5054236;28;20211;-75
2021/09/03 04:18:08;;;;;;;6.32;5.72;;;17.30;99.90;;;;;;5046552;28;20633;-75
2021/09/03 04:20:35;;;;;;;6.65;5.90;;;17.20;99.90;;;;;;5042175;28;20212;-76
2021/09/03 04:23:02;;;;;;;6.13;5.53;;;17.20;99.90;;;;;;5051611;28;20257;-75
2021/09/03 04:25:29;;;;;;;7.32;5.63;;;17.30;99.90;;;;;;5050772;28;20187;-76
2021/09/03 04:27:55;;;;;;;6.35;5.20;;;17.20;99.90;;;;;;5063884;28;20236;-75
2021/09/03 04:30:22;;;;;;;5.65;5.15;;;17.20;99.90;;;;;;5041659;28;20325;-75
2021/09/03 04:32:50;;;;;;;6.22;5.55;;;17.20;99.90;;;;;;5036747;28;20200;-75
2021/09/03 04:35:17;;;;;;;6.20;5.70;;;17.10;99.90;;;;;;5054168;28;20199;-75
2021/09/03 04:37:47;;;;;;;6.50;5.90;;;17.20;99.90;;;;;;5055374;28;20700;-75
2021/09/03 04:40:15;;;;;;;8.15;5.65;;;17.10;99.90;;;;;;5044565;28;20195;-75
2021/09/03 04:42:42;;;;;;;8.45;5.75;;;17.00;99.90;;;;;;5052592;28;20657;-75
2021/09/03 04:45:09;;;;;;;7.00;6.30;;;17.10;99.90;;;;;;5053817;28;20199;-75
2021/09/03 04:47:36;;;;;;;7.85;6.05;;;17.10;99.90;;;;;;5046537;28;20224;-76
2021/09/03 04:50:06;;;;;;;5.93;5.35;;;17.10;99.90;;;;;;5053232;28;20195;-76
2021/09/03 04:52:33;;;;;;;6.97;5.38;;;17.10;99.90;;;;;;5053446;28;20226;-75
2021/09/03 04:55:00;;;;;;;6.40;5.40;;;17.10;99.90;;;;;;5053461;28;20656;-76
2021/09/03 04:57:26;;;;;;;5.97;5.45;;;17.10;99.90;;;;;;5055571;28;20688;-76
2021/09/03 04:59:53;;;;;;;6.00;5.40;;;17.10;99.90;;;;;;5046134;28;20200;-76
2021/09/03 05:02:20;;;;;;;7.15;5.38;;;17.10;99.90;;;;;;5046327;28;20217;-76
2021/09/03 05:04:46;;;;;;;7.40;6.18;;;17.10;99.90;;;;;;5056204;28;20286;-75
2021/09/03 05:07:14;;;;;;;6.57;5.97;;;17.00;99.90;;;;;;5057598;28;20196;-75
2021/09/03 05:09:41;;;;;;;8.18;5.68;;;17.10;99.90;;;;;;5049721;28;20616;-75
2021/09/03 05:12:08;;;;;;;6.50;5.90;;;17.00;99.90;;;;;;5051703;28;20203;-75
2021/09/03 05:14:34;;;;;;;6.93;5.75;;;17.00;99.90;;;;;;5045215;28;20195;-75
2021/09/03 05:17:01;;;;;;;6.95;5.80;;;17.00;99.90;;;;;;5052538;28;20214;-75
2021/09/03 05:19:28;;;;;;;6.38;5.53;;;17.00;99.90;;;;;;5049400;28;20633;-75
2021/09/03 05:21:55;;;;;;;7.50;5.45;;;17.00;99.90;;;;;;5051465;28;20195;-75
2021/09/03 05:24:23;;;;;;;6.45;5.85;;;17.00;99.90;;;;;;5049591;28;20200;-75
2021/09/03 05:26:50;;;;;;;7.32;6.63;;;17.00;99.90;;;;;;5050920;28;20200;-75
2021/09/03 05:29:16;;;;;;;8.13;6.47;;;17.00;99.90;;;;;;5051328;28;20195;-75
2021/09/03 05:31:43;;;;;;;7.72;5.75;;;17.00;99.90;;;;;;5057465;28;20192;-75
2021/09/03 05:34:10;;;;;;;10.82;6.80;;;17.00;99.90;;;;;;5047946;28;20286;-74
2021/09/03 05:36:37;;;;;;;8.73;5.75;;;17.00;99.90;;;;;;5054254;28;20210;-76
2021/09/03 05:39:04;;;;;;;7.72;6.30;;;16.90;99.90;;;;;;5050601;28;20188;-75
2021/09/03 05:41:32;;;;;;;7.28;6.22;;;17.00;99.90;;;;;;5048086;28;20721;-76
2021/09/03 05:43:58;;;;;;;8.77;6.40;;;17.00;99.90;;;;;;5049049;28;20203;-75
2021/09/03 05:46:25;;;;;;;6.38;5.75;;;17.00;99.90;;;;;;5052848;28;20601;-75
2021/09/03 05:48:52;;;;;;;7.07;5.00;;;17.00;99.90;;;;;;5049151;28;20191;-75
2021/09/03 05:51:20;;;;;;;7.55;6.60;;;16.90;99.90;;;;;;5041033;28;20195;-75
2021/09/03 05:53:46;;;;;;;7.38;6.43;;;17.00;99.90;;;;;;5049431;28;20200;-75
2021/09/03 05:56:13;;;;;;;7.60;6.75;;;17.00;99.90;;;;;;5054823;28;20257;-75
2021/09/03 05:58:41;;;;;;;6.13;5.53;;;17.10;99.90;;;;;;5048706;28;20223;-75
2021/09/03 06:01:08;;;;;;;8.45;6.22;;;18.00;99.90;;;;;;5051222;28;20210;-75
2021/09/03 06:03:34;;;;;;;6.75;6.15;;;17.60;99.90;;;;;;5051222;28;20195;-76
2021/09/03 06:06:01;;;;;;;7.07;6.35;;;17.80;99.90;;;;;;5053747;28;20211;-74
2021/09/03 06:08:28;;;;;;;7.50;5.40;;;18.30;99.90;;;;;;5053492;28;20245;-75
2021/09/03 06:10:54;;;;;;;6.47;5.88;;;18.00;99.90;;;;;;5045065;28;20199;-76
2021/09/03 06:13:21;;;;;;;19.73;6.03;;;18.30;99.90;;;;;;5047989;28;20199;-76
2021/09/03 06:15:49;;;;;;;7.63;5.47;;;18.50;99.90;;;;;;5045790;28;20195;-76
2021/09/03 06:18:16;;;;;;;6.57;5.65;;;18.60;99.90;;;;;;5050396;28;20230;-75
2021/09/03 06:20:42;;;;;;;5.38;4.85;;;18.70;99.90;;;;;;5051237;28;20602;-74
2021/09/03 06:23:09;;;;;;;5.45;4.95;;;18.80;99.90;;;;;;5048382;28;20258;-75
2021/09/03 06:25:36;;;;;;;5.60;5.07;;;19.00;99.90;;;;;;5052740;28;20271;-74
2021/09/03 06:28:03;;;;;;;4.88;4.47;;;19.10;99.90;;;;;;5051782;28;20191;-74
2021/09/03 06:30:29;;;;;;;6.55;5.45;;;19.30;99.90;;;;;;5053852;28;20187;-74
2021/09/03 06:32:57;;;;;;;5.78;5.28;;;19.40;99.90;;;;;;5042190;28;20224;-74
2021/09/03 06:35:24;;;;;;;5.70;4.90;;;19.50;99.90;;;;;;5045140;28;20216;-74
2021/09/03 06:37:51;;;;;;;5.15;4.30;;;19.60;99.90;;;;;;5050178;28;20223;-74
2021/09/03 06:40:17;;;;;;;5.50;4.50;;;19.70;99.90;;;;;;5047406;28;20237;-75
2021/09/03 06:42:44;;;;;;;6.50;5.07;;;19.70;99.90;;;;;;5050779;28;20233;-75
2021/09/03 06:45:11;;;;;;;5.50;5.00;;;19.90;99.90;;;;;;5050548;28;20206;-74
2021/09/03 06:47:38;;;;;;;4.80;4.40;;;20.00;99.90;;;;;;5049659;28;20195;-75
2021/09/03 06:50:09;;;;;;;6.22;4.72;;;20.00;99.90;;;;;;5057770;28;20646;-74
2021/09/03 06:52:35;;;;;;;4.97;4.57;;;20.10;99.90;;;;;;5055299;28;20595;-75
2021/09/03 06:55:04;;;;;;;5.72;5.13;;;20.20;99.90;;;;;;5057262;28;20252;-75
2021/09/03 06:57:31;;;;;;;4.75;4.35;;;20.30;99.90;;;;;;5052635;28;20269;-75
2021/09/03 06:59:57;;;;;;;4.57;4.18;;;20.30;99.90;;;;;;5049703;28;20198;-75
2021/09/03 07:02:24;;;;;;;5.25;4.75;;;20.40;99.90;;;;;;5059176;28;20188;-75
2021/09/03 07:04:51;;;;;;;5.07;4.68;;;20.40;99.90;;;;;;5058608;28;20266;-75
2021/09/03 07:07:19;;;;;;;5.25;4.82;;;20.50;99.90;;;;;;5047639;28;20195;-75
2021/09/03 07:09:46;;;;;;;4.63;4.22;;;20.60;99.90;;;;;;5043514;28;20249;-75
2021/09/03 07:12:12;;;;;;;5.82;5.03;;;20.70;99.90;;;;;;5054196;28;20199;-75
2021/09/03 07:14:40;;;;;;;6.68;4.22;;;20.70;99.90;;;;;;5052507;28;20195;-76
2021/09/03 07:17:06;;;;;;;5.80;4.80;;;20.80;99.90;;;;;;5060357;28;20199;-76
2021/09/03 07:19:34;;;;;;;4.50;4.10;;;20.90;99.90;;;;;;5055430;28;20223;-82
2021/09/03 07:22:01;;;;;;;5.03;4.63;;;20.90;99.90;;;;;;5051074;28;20290;-82
2021/09/03 07:24:30;;;;;;;4.45;4.05;;;21.00;99.90;;;;;;5052492;28;20261;-80
2021/09/03 07:26:57;;;;;;;7.53;5.20;;;21.10;99.90;;;;;;5064777;28;20196;-81
2021/09/03 07:29:23;;;;;;;5.13;4.63;;;21.20;99.90;;;;;;5063400;28;20222;-80
2021/09/03 07:31:50;;;;;;;6.43;4.95;;;21.20;99.90;;;;;;5064463;28;20203;-80
2021/09/03 07:34:17;;;;;;;4.63;4.20;;;21.30;99.90;;;;;;5058871;28;20229;-81
2021/09/03 07:36:44;;;;;;;5.63;5.00;;;21.30;99.90;;;;;;5065315;28;20281;-79
2021/09/03 07:39:12;;;;;;;5.00;4.40;;;21.40;99.90;;;;;;5061477;28;20219;-76
2021/09/03 07:41:40;;;;;;;5.80;5.25;;;21.50;99.90;;;;;;5053386;28;20575;-76
2021/09/03 07:44:07;;;;;;;5.10;4.50;;;21.50;99.90;;;;;;5052372;28;20233;-76
2021/09/03 07:46:33;;;;;;;6.03;5.13;;;21.50;99.90;;;;;;5052723;28;20188;-77
2021/09/03 07:49:01;;;;;;;8.48;4.35;;;21.50;99.90;;;;;;5049540;28;20199;-77
2021/09/03 07:51:28;;;;;;;4.67;4.27;;;21.50;99.90;;;;;;5047807;28;20192;-76
2021/09/03 07:53:55;;;;;;;3.85;3.55;;;21.60;99.90;;;;;;5052050;28;20437;-76
2021/09/03 07:56:21;;;;;;;6.93;4.40;;;21.60;99.90;;;;;;5047084;28;20253;-76
2021/09/03 07:58:49;;;;;;;7.00;4.73;;;21.60;99.90;;;;;;5053051;28;20223;-77
2021/09/03 08:01:16;;;;;;;7.37;5.40;;;21.70;99.90;;;;;;5054346;28;20466;-77
2021/09/03 08:03:43;;;;;;;5.07;4.57;;;21.80;99.90;;;;;;5046115;28;20476;-77
2021/09/03 08:06:09;;;;;;;6.77;6.00;;;21.80;99.90;;;;;;5049585;28;20472;-77
2021/09/03 08:08:36;;;;;;;5.90;5.33;;;21.80;99.90;;;;;;5057244;28;20524;-77
2021/09/03 08:11:03;;;;;;;6.03;4.93;;;21.90;99.90;;;;;;5052522;28;20826;-76
2021/09/03 08:13:30;;;;;;;5.20;4.70;;;21.80;99.90;;;;;;5054356;28;20442;-77
2021/09/03 08:15:58;;;;;;;5.80;5.20;;;21.90;99.90;;;;;;5051741;28;20512;-76
2021/09/03 08:18:24;;;;;;;6.47;4.93;;;21.90;99.90;;;;;;5049375;28;20487;-76
2021/09/03 08:20:51;;;;;;;4.83;4.40;;;21.90;99.90;;;;;;5048210;28;20499;-77
2021/09/03 08:23:18;;;;;;;5.85;5.20;;;21.90;99.90;;;;;;5046046;28;20495;-76
2021/09/03 08:25:44;;;;;;;5.00;4.60;;;21.90;99.90;;;;;;5049222;28;20224;-76
2021/09/03 08:28:11;;;;;;;7.20;5.60;;;22.00;99.90;;;;;;5053048;28;20974;-77
2021/09/03 08:30:38;;;;;;;4.90;3.93;;;22.00;99.90;;;;;;5057462;28;20866;-76
2021/09/03 08:33:06;;;;;;;7.43;6.60;;;22.00;99.90;;;;;;5058264;28;20837;-76
2021/09/03 08:35:33;;;;;;;10.73;6.37;;;22.00;99.90;;;;;;5054429;28;20453;-76
2021/09/03 08:37:59;;;;;;;4.60;4.13;;;22.10;99.90;;;;;;5054938;28;20894;-76
2021/09/03 08:40:26;;;;;;;5.10;4.60;;;22.10;99.90;;;;;;5054028;28;20853;-76
2021/09/03 08:42:53;;;;;;;7.97;6.57;;;22.20;99.90;;;;;;5052453;28;20466;-77
2021/09/03 08:45:20;;;;;;;5.23;4.20;;;22.20;99.90;;;;;;5057221;28;20446;-77
2021/09/03 08:47:47;;;;;;;6.00;5.03;;;22.20;99.90;;;;;;5061880;28;20465;-76
2021/09/03 08:50:18;;;;;;;6.20;5.60;;;22.20;99.90;;;;;;5046444;28;20835;-77
2021/09/03 08:52:48;;;;;;;6.93;6.00;;;22.20;99.90;;;;;;5053410;28;20457;-78
2021/09/03 08:55:15;;;;;;;4.00;3.60;;;22.30;99.90;;;;;;5052311;28;20462;-78
2021/09/03 08:57:44;;;;;;;5.67;5.07;;;22.30;99.90;;;;;;5047685;28;21988;-80
2021/09/03 09:00:13;;;;;;;8.50;6.23;;;22.30;99.90;;;;;;5051501;28;20845;-78
2021/09/03 09:02:57;;;;;;;6.57;5.40;;;22.40;99.90;;;;;;5051244;28;20453;-79
2021/09/03 09:05:45;;;;;;;5.33;4.83;;;22.40;99.90;;;;;;5050287;28;20541;-78
2021/09/03 09:08:13;;;;;;;5.90;5.40;;;22.40;99.90;;;;;;5046151;28;20527;-78
2021/09/03 09:10:45;;;;;;;9.67;8.47;;;22.40;99.90;;;;;;5048638;28;20453;-76
2021/09/03 09:13:16;;;;;;;7.07;6.33;;;22.40;99.90;;;;;;5050520;28;20461;-77
2021/09/03 09:15:56;;;;;;;4.50;4.10;;;22.50;99.90;;;;;;5053625;28;20799;-77
2021/09/03 09:18:33;;;;;;;6.90;5.10;;;22.40;99.90;;;;;;5049070;28;20487;-79
2021/09/03 09:21:15;;;;;;;6.67;4.87;;;22.40;99.90;;;;;;5048221;28;20916;-77
2021/09/03 09:23:44;;;;;;;5.53;4.93;;;22.50;99.90;;;;;;5044071;28;20459;-79
2021/09/03 09:26:11;;;;;;;5.87;5.03;;;22.50;99.90;;;;;;5055263;28;20453;-77
2021/09/03 09:28:38;;;;;;;7.53;5.33;;;22.50;99.90;;;;;;5052724;28;20754;-77
2021/09/03 09:31:04;;;;;;;7.17;6.47;;;22.50;99.90;;;;;;5056625;28;20490;-78
2021/09/03 09:33:31;;;;;;;6.40;5.63;;;22.50;99.90;;;;;;5055751;28;20934;-76
2021/09/03 09:36:00;;;;;;;11.70;8.90;;;22.50;99.90;;;;;;5055129;28;20450;-79
2021/09/03 09:38:30;;;;;;;13.60;11.73;;;22.50;99.90;;;;;;5051861;28;20482;-78
2021/09/03 09:40:58;;;;;;;12.00;10.63;;;22.60;99.90;;;;;;5055216;28;20459;-77
2021/09/03 09:43:27;;;;;;;14.10;10.00;;;22.70;99.90;;;;;;5045912;28;20443;-77
2021/09/03 09:46:21;;;;;;;14.03;8.27;;;22.70;99.90;;;;;;5048551;28;20965;-77
2021/09/03 09:49:00;;;;;;;10.10;8.40;;;22.70;99.90;;;;;;5054147;28;20465;-77
2021/09/03 09:51:28;;;;;;;10.60;7.93;;;22.70;99.90;;;;;;5059163;28;20842;-77
2021/09/03 09:53:58;;;;;;;11.23;9.10;;;22.70;99.90;;;;;;5049642;28;20465;-78
2021/09/03 09:56:27;;;;;;;9.80;7.60;;;22.70;99.90;;;;;;5045595;28;20446;-77
2021/09/03 09:58:55;;;;;;;10.63;8.27;;;22.70;99.90;;;;;;5051773;28;20823;-77
2021/09/03 10:01:22;;;;;;;11.77;7.43;;;22.60;99.90;;;;;;5052524;28;20962;-77
2021/09/03 10:03:50;;;;;;;11.53;8.23;;;22.60;99.90;;;;;;5051421;28;20462;-78
2021/09/03 10:06:18;;;;;;;8.73;7.63;;;22.60;99.90;;;;;;5056879;28;20454;-77
2021/09/03 10:08:48;;;;;;;8.20;6.30;;;22.50;99.90;;;;;;5055095;28;20615;-77
2021/09/03 10:11:17;;;;;;;9.50;8.37;;;22.50;99.90;;;;;;5051217;28;20918;-77
2021/09/03 10:13:44;;;;;;;10.73;7.53;;;22.50;99.90;;;;;;5047799;28;20449;-77
2021/09/03 10:16:11;;;;;;;8.70;7.80;;;22.40;99.90;;;;;;5056323;28;20800;-76
2021/09/03 10:18:39;;;;;;;10.63;9.13;;;22.40;99.90;;;;;;5054323;28;20476;-77
2021/09/03 10:21:07;;;;;;;11.07;8.90;;;22.40;99.90;;;;;;5047978;28;20531;-77
2021/09/03 10:23:55;;;;;;;9.70;7.53;;;22.40;99.90;;;;;;5037882;28;20443;-78
2021/09/03 10:26:26;;;;;;;7.33;6.63;;;22.40;99.90;;;;;;5054912;28;20461;-77
2021/09/03 10:29:23;;;;;;;10.73;9.50;;;22.30;99.90;;;;;;5052182;28;20458;-78
2021/09/03 10:32:24;;;;;;;6.83;6.20;;;22.20;99.90;;;;;;5048282;28;20499;-77
2021/09/03 10:35:01;;;;;;;8.53;7.60;;;22.20;99.90;;;;;;5042339;28;20460;-78
2021/09/03 10:37:38;;;;;;;7.70;7.00;;;22.20;99.90;;;;;;5045771;28;21290;-77
2021/09/03 10:40:21;;;;;;;9.83;6.20;;;22.20;99.90;;;;;;5047896;28;20492;-77
2021/09/03 10:42:53;;;;;;;6.43;5.83;;;22.30;99.90;;;;;;5049616;28;20462;-77
2021/09/03 10:45:23;;;;;;;9.37;8.00;;;22.20;99.90;;;;;;5047272;28;20462;-77
2021/09/03 10:47:58;;;;;;;11.23;6.30;;;22.30;99.90;;;;;;5050158;28;20485;-77
2021/09/03 10:50:29;;;;;;;7.60;6.70;;;22.30;99.90;;;;;;5047970;28;20541;-77
2021/09/03 10:53:30;;;;;;;9.17;7.23;;;22.20;99.90;;;;;;5046729;28;20487;-77
2021/09/03 10:56:00;;;;;;;7.20;6.50;;;22.20;99.90;;;;;;5053123;28;20953;-77
2021/09/03 10:58:32;;;;;;;7.97;6.87;;;22.20;99.90;;;;;;5054264;28;20470;-78
2021/09/03 11:01:27;;;;;;;21.23;7.10;;;22.20;99.90;;;;;;5056278;28;20870;-77
2021/09/03 11:03:57;;;;;;;6.40;5.77;;;22.10;99.90;;;;;;5057766;28;20473;-77
2021/09/03 11:06:30;;;;;;;6.47;5.87;;;22.20;99.90;;;;;;5054726;28;20461;-78
2021/09/03 11:08:58;;;;;;;5.43;4.90;;;22.10;99.90;;;;;;5050994;28;20455;-78
2021/09/03 11:11:26;;;;;;;5.80;5.30;;;22.10;99.90;;;;;;5047459;28;20455;-77
2021/09/03 11:13:56;;;;;;;5.87;5.17;;;22.10;99.90;;;;;;5047032;28;20462;-78
2021/09/03 11:16:34;;;;;;;6.67;5.30;;;22.10;99.90;;;;;;5051849;28;20641;-78
2021/09/03 11:19:07;;;;;;;5.60;4.90;;;22.10;99.90;;;;;;5054404;28;20492;-77
2021/09/03 11:21:36;;;;;;;9.90;6.10;;;22.10;99.90;;;;;;5051309;28;20894;-77
2021/09/03 11:24:03;;;;;;;7.73;6.70;;;22.10;99.90;;;;;;5037441;28;20470;-78
2021/09/03 11:26:32;;;;;;;5.13;4.73;;;22.10;99.90;;;;;;5056637;28;20846;-77
2021/09/03 11:29:02;;;;;;;10.03;6.83;;;22.20;99.90;;;;;;5068815;28;20504;-77
2021/09/03 11:31:30;;;;;;;7.43;6.73;;;22.10;99.90;;;;;;5058367;28;20508;-77
2021/09/03 11:33:57;;;;;;;8.07;5.03;;;22.10;99.90;;;;;;5048615;28;20511;-77
2021/09/03 11:36:24;;;;;;;7.25;6.45;;;22.10;99.90;;;;;;5050169;28;20512;-77
2021/09/03 11:38:55;;;;;;;7.80;6.30;;;22.10;99.90;;;;;;5047955;28;20277;-78
2021/09/03 11:41:22;;;;;;;7.35;5.38;;;22.10;99.90;;;;;;5056011;28;20458;-77
2021/09/03 11:43:49;;;;;;;8.33;5.83;;;22.10;99.90;;;;;;5052645;28;20203;-77
2021/09/03 11:46:19;;;;;;;7.87;6.17;;;22.10;99.90;;;;;;5042437;28;20867;-77
2021/09/03 11:48:49;;;;;;;7.50;6.80;;;22.10;99.90;;;;;;5055736;28;20534;-78
2021/09/03 11:51:17;;;;;;;6.97;5.80;;;22.10;99.90;;;;;;5051728;28;20447;-77
2021/09/03 11:53:44;;;;;;;5.30;4.80;;;22.10;99.90;;;;;;5055141;28;20454;-77
2021/09/03 11:56:15;;;;;;;7.37;5.40;;;22.10;99.90;;;;;;5059855;28;20453;-77
2021/09/03 11:58:43;;;;;;;7.67;5.20;;;22.10;99.90;;;;;;5046621;28;20486;-77
2021/09/03 12:01:13;;;;;;;7.40;6.80;;;22.10;99.90;;;;;;5059257;28;20468;-78
2021/09/03 12:03:44;;;;;;;9.33;6.63;;;22.10;99.90;;;;;;5054924;28;20468;-77
2021/09/03 12:06:14;;;;;;;6.28;4.88;;;22.10;99.90;;;;;;5053525;28;20503;-77
2021/09/03 12:08:41;;;;;;;6.87;6.17;;;22.10;99.90;;;;;;5047751;28;20195;-77
2021/09/03 12:11:09;;;;;;;8.10;5.73;;;22.00;99.90;;;;;;5056217;28;20949;-77
2021/09/03 12:13:37;;;;;;;6.23;5.67;;;22.10;99.90;;;;;;5054151;28;20461;-77
2021/09/03 12:16:06;;;;;;;6.70;6.10;;;22.10;99.90;;;;;;5054370;28;20496;-77
2021/09/03 12:18:34;;;;;;;5.53;4.97;;;22.00;99.90;;;;;;5052354;28;20464;-77
2021/09/03 12:21:06;;;;;;;5.83;5.10;;;22.00;99.90;;;;;;5055431;28;21010;-77
2021/09/03 12:23:35;;;;;;;8.10;6.23;;;22.00;99.90;;;;;;5054994;28;20470;-76
2021/09/03 12:26:08;;;;;;;7.10;5.90;;;22.00;99.90;;;;;;5050420;28;20460;-77
2021/09/03 12:28:35;;;;;;;6.40;5.80;;;22.00;99.90;;;;;;5048524;28;20812;-78
2021/09/03 12:31:11;;;;;;;6.27;5.53;;;22.00;99.90;;;;;;5046572;28;20199;-77
2021/09/03 12:33:47;;;;;;;5.27;4.70;;;22.00;99.90;;;;;;5053097;28;20973;-77
2021/09/03 12:36:20;;;;;;;7.43;5.70;;;22.00;99.90;;;;;;5056566;28;20473;-76
2021/09/03 12:38:53;;;;;;;5.80;5.30;;;22.00;99.90;;;;;;5049211;28;20450;-77
2021/09/03 12:41:21;;;;;;;9.00;5.90;;;22.00;99.90;;;;;;5055330;28;20253;-77
2021/09/03 12:43:52;;;;;;;6.20;5.65;;;22.00;99.90;;;;;;5069637;28;20533;-77
2021/09/03 12:46:19;;;;;;;7.27;5.63;;;22.00;99.90;;;;;;5049454;28;20199;-77
2021/09/03 12:49:04;;;;;;;5.65;5.18;;;22.00;99.90;;;;;;5044375;28;20469;-77
2021/09/03 12:51:34;;;;;;;5.93;5.30;;;22.00;99.90;;;;;;5047701;28;20199;-77